Time;durP1;ratioP1;P1;durP2;ratioP2;P2;SDS_P1;SDS_P2;PMS_P1;PMS_P2;Temp;Humidity;BMP_temperature;BMP_pressure;BME280_temperature;BME280_humidity;BME280_pressure;Samples;Min_cycle;Max_cycle;Signal;HPM_P1;HPM_P2
2022/06/30 00:01:47;;;;;;;4.18;3.97;;;;;;;20.54;77.65;64125.09;5007228;28;20230;-78
2022/06/30 00:04:14;;;;;;;4.75;3.80;;;;;;;20.51;78.64;64125.09;5007318;28;20202;-78
2022/06/30 00:06:41;;;;;;;6.05;4.32;;;;;;;20.47;80.93;64123.50;5006042;28;20413;-78
2022/06/30 00:09:08;;;;;;;4.45;4.15;;;;;;;20.36;83.95;64106.81;4986615;28;20387;-78
2022/06/30 00:11:35;;;;;;;4.30;4.00;;;;;;;20.33;84.72;64105.75;4998715;28;20203;-78
2022/06/30 00:14:02;;;;;;;4.55;4.13;;;;;;;20.30;86.26;64094.88;5003659;28;20489;-78
2022/06/30 00:16:30;;;;;;;5.05;4.65;;;;;;;20.29;86.83;64101.59;5004903;28;20214;-78
2022/06/30 00:18:57;;;;;;;6.65;4.55;;;;;;;20.21;85.85;64093.75;5004008;28;20218;-77
2022/06/30 00:21:24;;;;;;;7.35;4.93;;;;;;;20.16;86.85;64085.97;5004187;28;20292;-77
2022/06/30 00:23:52;;;;;;;8.45;5.22;;;;;;;20.14;87.21;64086.44;5005054;28;20218;-78
2022/06/30 00:26:18;;;;;;;4.95;4.47;;;;;;;20.07;88.12;64076.53;5004337;28;20428;-78
2022/06/30 00:28:46;;;;;;;7.18;4.90;;;;;;;20.04;88.63;64076.00;5003243;28;20219;-78
2022/06/30 00:31:13;;;;;;;5.82;4.57;;;;;;;19.97;90.57;64073.34;5005749;28;20503;-77
2022/06/30 00:33:41;;;;;;;6.03;4.85;;;;;;;19.85;92.69;64056.19;5008679;28;20218;-78
2022/06/30 00:36:08;;;;;;;5.35;4.93;;;;;;;19.79;93.23;64052.00;5007843;28;20187;-78
2022/06/30 00:38:35;;;;;;;5.60;5.10;;;;;;;19.69;95.11;64036.41;5004819;28;20413;-78
2022/06/30 00:41:02;;;;;;;6.00;5.50;;;;;;;19.68;96.18;64035.88;5004904;28;20230;-79
2022/06/30 00:43:29;;;;;;;5.60;5.15;;;;;;;19.54;97.20;64026.94;5004914;28;20378;-78
2022/06/30 00:45:56;;;;;;;6.28;5.45;;;;;;;19.57;97.80;64026.97;5002817;28;20213;-77
2022/06/30 00:48:23;;;;;;;5.93;4.70;;;;;;;19.45;97.88;64009.28;5003489;28;20222;-77
2022/06/30 00:50:51;;;;;;;6.63;5.68;;;;;;;19.46;98.27;64015.50;5003882;28;20205;-79
2022/06/30 00:53:19;;;;;;;8.05;4.97;;;;;;;19.33;98.82;64002.47;5001857;28;20336;-77
2022/06/30 00:55:48;;;;;;;5.57;5.07;;;;;;;19.39;99.11;64006.16;5003418;28;20203;-78
2022/06/30 00:58:18;;;;;;;6.18;5.68;;;;;;;19.39;100.00;64005.63;5003582;28;20273;-79
2022/06/30 01:00:49;;;;;;;6.22;5.28;;;;;;;19.28;100.00;63992.06;5003889;28;20218;-77
2022/06/30 01:03:17;;;;;;;5.93;5.50;;;;;;;19.23;100.00;63994.06;5002931;28;20286;-78
2022/06/30 01:05:46;;;;;;;6.85;5.18;;;;;;;19.18;100.00;63983.69;5002471;28;20245;-80
2022/06/30 01:08:17;;;;;;;5.10;4.80;;;;;;;19.09;100.00;63976.88;5005024;28;20377;-78
2022/06/30 01:13:29;;;;;;;5.55;5.03;;;;;;;18.98;100.00;63965.94;5006994;28;20246;-79
2022/06/30 01:15:56;;;;;;;5.45;5.05;;;;;;;18.87;100.00;63949.31;5003923;28;20198;-78
2022/06/30 01:18:23;;;;;;;5.70;5.15;;;;;;;18.68;100.00;63929.00;5004329;28;20290;-78
2022/06/30 01:20:50;;;;;;;6.70;5.90;;;;;;;18.61;100.00;63926.84;5003002;28;20281;-78
2022/06/30 01:23:18;;;;;;;6.57;5.30;;;;;;;18.60;100.00;63923.78;5003615;28;20219;-79
2022/06/30 01:25:46;;;;;;;5.93;5.43;;;;;;;18.37;100.00;63902.34;5003006;28;20272;-78
2022/06/30 01:28:13;;;;;;;6.80;5.82;;;;;;;18.48;100.00;63913.31;5003422;28;20230;-77
2022/06/30 01:30:41;;;;;;;6.75;6.13;;;;;;;18.45;100.00;63905.03;5002241;28;20203;-76
2022/06/30 01:33:08;;;;;;;6.68;6.15;;;;;;;18.50;100.00;63915.91;5003225;28;20226;-78
2022/06/30 01:35:35;;;;;;;6.95;6.35;;;;;;;18.48;100.00;63910.72;5003420;28;20511;-78
2022/06/30 01:38:02;;;;;;;6.60;6.00;;;;;;;18.41;100.00;63907.06;5002246;28;20219;-78
2022/06/30 01:40:34;;;;;;;7.45;6.50;;;;;;;18.33;100.00;63900.75;5002588;28;20269;-78
2022/06/30 01:43:01;;;;;;;5.88;5.47;;;;;;;18.32;100.00;63897.16;5002955;28;20281;-78
2022/06/30 01:45:28;;;;;;;6.28;5.60;;;;;;;18.26;100.00;63888.31;5002481;28;20203;-77
2022/06/30 01:47:56;;;;;;;5.93;5.40;;;;;;;18.25;100.00;63887.28;5002353;28;20223;-78
2022/06/30 01:50:25;;;;;;;6.10;5.60;;;;;;;18.33;100.00;63898.19;5003255;28;20226;-77
2022/06/30 01:52:52;;;;;;;7.22;5.45;;;;;;;18.27;100.00;63889.34;5002861;28;20395;-77
2022/06/30 01:55:19;;;;;;;7.72;5.57;;;;;;;18.34;100.00;63896.66;5003020;28;20199;-77
2022/06/30 01:57:48;;;;;;;5.47;5.00;;;;;;;18.32;100.00;63895.09;5002039;28;20233;-77
2022/06/30 02:00:17;;;;;;;5.78;5.20;;;;;;;18.36;100.00;63896.16;5002867;28;20245;-77
2022/06/30 02:02:44;;;;;;;7.18;5.00;;;;;;;18.40;100.00;63902.91;4983554;28;20302;-77
2022/06/30 02:05:12;;;;;;;6.00;5.05;;;;;;;18.36;100.00;63901.31;4999888;28;20252;-78
2022/06/30 02:07:39;;;;;;;5.30;4.88;;;;;;;18.30;100.00;63889.91;5003281;28;20289;-78
2022/06/30 02:10:08;;;;;;;8.55;5.32;;;;;;;18.28;100.00;63890.38;5002931;28;20368;-78
2022/06/30 02:12:47;;;;;;;7.88;4.60;;;;;;;18.25;100.00;63887.28;5003898;28;20226;-79
2022/06/30 02:15:17;;;;;;;6.32;4.90;;;;;;;18.22;100.00;63879.50;5002758;28;20206;-78
2022/06/30 02:17:45;;;;;;;6.43;5.88;;;;;;;18.16;100.00;63881.00;4991369;28;20606;-78
2022/06/30 02:20:18;;;;;;;6.68;6.07;;;;;;;18.16;100.00;63883.56;5005367;28;20506;-77
2022/06/30 02:22:45;;;;;;;7.05;6.47;;;;;;;18.13;100.00;63875.28;4999969;28;20285;-78
2022/06/30 02:25:12;;;;;;;9.45;6.70;;;;;;;18.14;100.00;63878.38;5002454;28;20213;-78
2022/06/30 02:27:39;;;;;;;7.20;6.60;;;;;;;18.16;100.00;63875.84;5002659;28;20230;-77
2022/06/30 02:30:07;;;;;;;7.47;6.43;;;;;;;18.11;100.00;63872.69;5003418;28;20199;-77
2022/06/30 02:32:36;;;;;;;8.18;6.50;;;;;;;18.06;100.00;63868.00;4997203;28;20223;-78
2022/06/30 02:35:03;;;;;;;8.77;6.88;;;;;;;18.03;100.00;63866.94;5003286;28;20199;-77
2022/06/30 02:37:31;;;;;;;5.93;5.47;;;;;;;18.00;100.00;63864.31;5004227;28;20253;-77
2022/06/30 02:39:58;;;;;;;5.50;5.00;;;;;;;17.97;100.00;63861.19;5006787;28;20218;-77
2022/06/30 02:42:25;;;;;;;6.78;4.93;;;;;;;17.96;100.00;63860.16;4998394;28;20234;-77
2022/06/30 02:44:51;;;;;;;5.50;5.00;;;;;;;17.95;100.00;63856.53;5006592;28;20578;-77
2022/06/30 02:47:18;;;;;;;6.25;4.82;;;;;;;17.88;100.00;63851.28;5005744;28;20252;-77
2022/06/30 02:49:47;;;;;;;5.30;4.57;;;;;;;17.84;100.00;63847.13;5006401;28;20227;-77
2022/06/30 02:52:14;;;;;;;5.60;5.10;;;;;;;17.85;100.00;63843.03;5004900;28;20267;-78
2022/06/30 02:54:40;;;;;;;5.18;4.43;;;;;;;17.88;100.00;63848.72;5005933;28;20211;-78
2022/06/30 02:57:07;;;;;;;5.60;5.20;;;;;;;17.88;100.00;63849.25;5005421;28;20222;-78
2022/06/30 02:59:34;;;;;;;5.35;4.32;;;;;;;17.91;100.00;63857.50;5005277;28;20199;-77
2022/06/30 03:02:01;;;;;;;4.90;4.57;;;;;;;17.99;100.00;63862.75;5005525;28;20235;-77
2022/06/30 03:04:28;;;;;;;4.70;4.40;;;;;;;18.01;100.00;63864.84;5005784;28;20237;-77
2022/06/30 03:06:56;;;;;;;5.13;4.05;;;;;;;18.02;100.00;63866.41;5006255;28;20206;-78
2022/06/30 03:09:24;;;;;;;5.30;4.55;;;;;;;18.10;100.00;63874.22;5004678;28;20226;-77
2022/06/30 03:11:52;;;;;;;5.03;4.50;;;;;;;18.14;100.00;63873.22;5005445;28;20241;-77
2022/06/30 03:14:19;;;;;;;4.72;4.28;;;;;;;18.19;100.00;63878.97;5001545;28;20558;-78
2022/06/30 03:16:46;;;;;;;5.13;3.80;;;;;;;18.25;100.00;63892.44;5005470;28;20253;-78
2022/06/30 03:19:13;;;;;;;5.18;4.68;;;;;;;18.28;100.00;63893.50;5004329;28;20282;-78
2022/06/30 03:21:40;;;;;;;5.05;4.60;;;;;;;18.31;100.00;63894.03;5005140;28;20226;-78
2022/06/30 03:24:09;;;;;;;7.63;4.20;;;;;;;18.37;100.00;63902.88;4990647;28;20238;-79
2022/06/30 03:26:37;;;;;;;4.55;4.20;;;;;;;18.50;100.00;63913.34;4989537;28;20241;-78
2022/06/30 03:29:04;;;;;;;4.82;4.30;;;;;;;18.49;100.00;63914.88;5006947;28;20392;-78
2022/06/30 03:31:31;;;;;;;4.50;4.20;;;;;;;18.54;100.00;63916.97;5004829;28;20267;-78
2022/06/30 03:33:59;;;;;;;5.45;4.32;;;;;;;18.62;100.00;63927.91;5006305;28;20519;-77
2022/06/30 03:36:26;;;;;;;5.30;4.88;;;;;;;18.71;100.00;63935.22;5003667;28;20218;-78
2022/06/30 03:38:53;;;;;;;4.38;4.07;;;;;;;18.77;100.00;63943.53;5006116;28;20238;-78
2022/06/30 03:41:21;;;;;;;4.68;3.95;;;;;;;18.90;100.00;63957.09;5004840;28;20410;-78
2022/06/30 03:43:48;;;;;;;4.53;4.18;;;;;;;18.89;100.00;63959.16;5006166;28;20233;-78
2022/06/30 03:46:15;;;;;;;8.35;4.13;;;;;;;18.99;100.00;63967.00;5006540;28;20266;-78
2022/06/30 03:48:42;;;;;;;4.30;3.90;;;;;;;19.05;100.00;63970.66;5008180;28;20219;-77
2022/06/30 03:51:11;;;;;;;4.63;4.22;;;;;;;19.15;100.00;63978.53;4997796;28;20427;-78
2022/06/30 03:53:38;;;;;;;4.63;4.35;;;;;;;19.20;100.00;63990.94;4988485;28;20299;-78
2022/06/30 03:56:06;;;;;;;5.75;4.47;;;;;;;19.31;100.00;63997.78;5004988;28;20495;-77
2022/06/30 03:58:34;;;;;;;4.40;4.00;;;;;;;19.36;100.00;64003.00;5004330;28;20219;-79
2022/06/30 04:01:01;;;;;;;4.82;4.40;;;;;;;19.50;100.00;64017.09;5005788;28;20265;-78
2022/06/30 04:03:28;;;;;;;7.10;4.85;;;;;;;19.53;100.00;64017.63;5004778;28;20278;-78
2022/06/30 04:05:55;;;;;;;5.40;4.90;;;;;;;19.53;100.00;64018.16;5005165;28;20553;-78
2022/06/30 04:08:22;;;;;;;4.72;4.35;;;;;;;19.43;100.00;64015.47;5005038;28;20222;-78
2022/06/30 04:10:49;;;;;;;14.57;5.47;;;;;;;19.51;100.00;64020.72;5004168;28;20199;-78
2022/06/30 04:13:16;;;;;;;10.07;6.90;;;;;;;19.50;100.00;64014.50;5004406;28;20264;-79
2022/06/30 04:15:44;;;;;;;10.50;6.80;;;;;;;19.47;100.00;64014.47;5006607;28;20198;-78
2022/06/30 04:18:12;;;;;;;6.15;5.75;;;;;;;19.50;100.00;64020.19;5005789;28;20226;-79
2022/06/30 04:20:39;;;;;;;10.95;6.57;;;;;;;19.69;100.00;64039.47;5005664;28;20294;-78
2022/06/30 04:23:07;;;;;;;6.43;5.80;;;;;;;19.90;100.00;64061.41;5008952;28;20234;-81
2022/06/30 04:25:34;;;;;;;8.57;6.47;;;;;;;20.03;100.00;64071.84;5008991;28;20412;-78
2022/06/30 04:28:01;;;;;;;7.45;6.78;;;;;;;20.08;100.00;64077.59;5008465;28;20226;-78
2022/06/30 04:33:14;;;;;;;6.43;5.68;;;;;;;19.99;100.00;64068.22;5006373;28;20534;-79
2022/06/30 04:35:41;;;;;;;8.90;6.47;;;;;;;20.00;100.00;64069.25;5004030;28;20199;-79
2022/06/30 04:38:08;;;;;;;6.68;6.05;;;;;;;20.00;100.00;64071.31;5005779;28;20218;-80
2022/06/30 04:43:21;;;;;;;7.47;6.35;;;;;;;19.93;100.00;64064.00;4972304;28;20237;-78
2022/06/30 04:45:48;;;;;;;11.38;7.75;;;;;;;19.89;100.00;64060.34;5008215;28;20205;-78
2022/06/30 04:48:17;;;;;;;10.23;7.05;;;;;;;19.96;100.00;64067.13;5005054;28;20218;-78
2022/06/30 04:50:44;;;;;;;17.92;7.60;;;;;;;19.95;100.00;64060.94;5004743;28;20230;-78
2022/06/30 04:53:19;;;;;;;13.98;6.90;;;;;;;19.84;100.00;64057.19;5006387;28;20290;-78
2022/06/30 04:55:47;;;;;;;7.95;6.75;;;;;;;19.84;100.00;64054.63;4996472;28;20222;-78
2022/06/30 04:58:13;;;;;;;7.75;6.70;;;;;;;19.97;100.00;64071.28;5004898;28;20615;-77
2022/06/30 05:00:40;;;;;;;9.88;6.60;;;;;;;19.94;100.00;64065.06;5002405;28;20215;-78
2022/06/30 05:03:08;;;;;;;7.78;6.97;;;;;;;20.01;100.00;64072.34;5004234;28;20254;-79
2022/06/30 05:05:36;;;;;;;12.68;6.20;;;;;;;19.91;100.00;64065.03;5005317;28;20207;-79
2022/06/30 05:08:04;;;;;;;14.00;7.03;;;;;;;20.02;100.00;64073.91;5004024;28;20218;-80
2022/06/30 05:10:31;;;;;;;7.30;6.57;;;;;;;20.10;100.00;64079.69;4994158;28;20221;-79
2022/06/30 05:12:58;;;;;;;10.55;6.38;;;;;;;20.25;100.00;64097.94;5005683;28;20469;-78
2022/06/30 05:15:25;;;;;;;11.80;6.55;;;;;;;20.52;100.00;64125.59;5006133;28;20203;-79
2022/06/30 05:17:52;;;;;;;8.88;7.00;;;;;;;20.44;99.89;64114.66;5004412;28;20523;-78
2022/06/30 05:20:20;;;;;;;11.57;6.25;;;;;;;20.56;98.44;64127.19;5003824;28;20278;-79
2022/06/30 05:22:48;;;;;;;6.93;6.15;;;;;;;20.77;97.53;64149.13;5005463;28;20257;-79
2022/06/30 05:28:14;;;;;;;7.03;6.07;;;;;;;21.02;95.47;64175.22;4943014;29;20280;-78
2022/06/30 05:30:41;;;;;;;13.35;7.95;;;;;;;21.06;96.27;64182.00;4942681;29;20482;-78
2022/06/30 05:33:08;;;;;;;6.85;6.03;;;;;;;21.17;97.27;64192.97;4968020;28;20223;-78
2022/06/30 05:35:35;;;;;;;7.25;6.55;;;;;;;21.44;94.58;64221.16;5001984;28;20199;-79
2022/06/30 05:38:03;;;;;;;10.60;7.35;;;;;;;21.58;91.95;64233.19;5002553;28;20242;-77
2022/06/30 05:40:30;;;;;;;12.25;6.88;;;;;;;21.56;91.67;64233.69;5005274;28;20262;-77
2022/06/30 05:42:57;;;;;;;14.25;7.18;;;;;;;21.70;91.57;64245.75;5004526;28;20352;-78
2022/06/30 05:45:24;;;;;;;11.30;6.88;;;;;;;21.75;90.88;64256.66;5003961;28;20427;-79
2022/06/30 05:47:53;;;;;;;13.88;7.28;;;;;;;21.72;90.14;64250.94;4996455;28;20242;-78
2022/06/30 05:50:21;;;;;;;10.10;7.55;;;;;;;21.77;88.81;64256.19;4996739;28;20389;-77
2022/06/30 05:52:50;;;;;;;8.65;6.28;;;;;;;21.76;89.69;64257.19;5003536;28;20265;-78
2022/06/30 05:55:19;;;;;;;7.05;6.05;;;;;;;21.87;90.62;64260.41;5002022;28;20399;-76
2022/06/30 05:57:53;;;;;;;12.13;6.65;;;;;;;21.99;91.37;64270.34;5001555;28;20211;-78
2022/06/30 06:00:21;;;;;;;7.93;6.10;;;;;;;22.16;88.24;64301.09;4988385;28;20207;-78
2022/06/30 06:02:48;;;;;;;11.25;6.18;;;;;;;22.27;87.27;64310.00;4995589;28;20238;-77
2022/06/30 06:05:15;;;;;;;8.15;6.55;;;;;;;22.31;85.98;64314.19;5002524;28;20393;-77
2022/06/30 06:07:43;;;;;;;8.57;6.53;;;;;;;22.25;87.04;64300.09;4998362;28;20219;-78
2022/06/30 06:10:11;;;;;;;12.10;6.32;;;;;;;22.50;85.30;64331.44;5002946;28;20206;-78
2022/06/30 06:12:39;;;;;;;7.03;6.43;;;;;;;22.39;82.62;64320.47;5002858;28;20289;-78
2022/06/30 06:15:07;;;;;;;16.85;6.68;;;;;;;22.29;84.26;64301.69;5006589;28;20187;-77
2022/06/30 06:17:41;;;;;;;10.07;6.20;;;;;;;22.40;86.09;64321.00;5005612;28;20222;-78
2022/06/30 06:20:09;;;;;;;9.70;6.45;;;;;;;22.60;85.97;64337.25;5007833;28;20197;-78
2022/06/30 06:22:36;;;;;;;14.30;7.20;;;;;;;22.63;82.97;64345.56;5006121;28;20234;-78
2022/06/30 06:25:03;;;;;;;8.15;6.40;;;;;;;22.63;82.69;64345.03;5006835;28;20555;-78
2022/06/30 06:27:29;;;;;;;7.45;6.47;;;;;;;22.82;81.21;64364.91;5005549;28;20226;-78
2022/06/30 06:29:57;;;;;;;7.45;6.80;;;;;;;22.87;79.41;64367.53;5004484;28;20519;-78
2022/06/30 06:32:24;;;;;;;9.52;7.07;;;;;;;22.62;79.07;64344.00;5006041;28;20234;-78
2022/06/30 06:34:50;;;;;;;8.43;6.50;;;;;;;22.73;82.51;64358.63;5006063;28;20246;-80
2022/06/30 06:37:17;;;;;;;8.57;6.47;;;;;;;22.98;80.81;64383.72;4997195;28;20230;-78
2022/06/30 06:39:44;;;;;;;7.10;6.40;;;;;;;23.05;78.64;64394.16;4987303;28;20259;-79
2022/06/30 06:42:11;;;;;;;11.55;7.00;;;;;;;23.08;78.42;64391.56;4986856;28;20231;-78
2022/06/30 06:44:38;;;;;;;14.30;6.80;;;;;;;23.45;77.75;64433.41;4995284;28;20545;-78
2022/06/30 06:47:07;;;;;;;11.75;7.15;;;;;;;23.32;73.76;64417.22;5006777;28;20225;-78
2022/06/30 06:49:34;;;;;;;13.38;7.50;;;;;;;23.55;72.76;64443.91;5006072;28;20209;-79
2022/06/30 06:52:01;;;;;;;12.68;6.53;;;;;;;23.60;74.65;64448.59;5007358;28;20537;-78
2022/06/30 06:54:27;;;;;;;10.85;7.72;;;;;;;23.54;72.31;64439.75;5006099;28;20206;-78
2022/06/30 06:56:54;;;;;;;7.68;6.82;;;;;;;23.39;73.61;64424.03;5006765;28;20382;-79
2022/06/30 06:59:21;;;;;;;11.95;7.07;;;;;;;23.45;72.23;64430.81;5006300;28;20186;-79
2022/06/30 07:01:48;;;;;;;9.60;8.10;;;;;;;23.48;78.70;64433.97;5007093;28;20234;-79
2022/06/30 07:04:17;;;;;;;11.52;7.07;;;;;;;23.58;74.52;64439.25;4993991;28;20553;-79
2022/06/30 07:06:45;;;;;;;8.73;7.65;;;;;;;23.74;72.79;64455.97;5008634;28;20198;-78
2022/06/30 07:09:21;;;;;;;10.68;7.75;;;;;;;23.87;71.59;64469.03;5013136;28;20198;-78
2022/06/30 07:11:48;;;;;;;8.05;7.22;;;;;;;24.09;72.43;64497.28;5009485;28;20439;-76
2022/06/30 07:14:15;;;;;;;12.27;6.95;;;;;;;24.13;72.20;64500.97;5006460;28;20242;-75
2022/06/30 07:16:42;;;;;;;8.05;6.72;;;;;;;24.45;72.92;64532.41;5005782;28;20195;-76
2022/06/30 07:19:09;;;;;;;15.45;8.40;;;;;;;24.31;69.11;64515.13;5005571;28;20226;-75
2022/06/30 07:21:37;;;;;;;9.60;7.22;;;;;;;24.35;68.91;64519.31;5004826;28;20218;-75
2022/06/30 07:24:04;;;;;;;13.10;8.00;;;;;;;24.40;68.19;64529.75;5003103;28;20453;-75
2022/06/30 07:26:31;;;;;;;9.23;7.80;;;;;;;24.49;67.87;64541.28;5004739;28;20507;-76
2022/06/30 07:28:58;;;;;;;8.13;7.30;;;;;;;24.64;68.40;64554.38;5004872;28;20483;-76
2022/06/30 07:31:25;;;;;;;9.30;6.57;;;;;;;24.86;68.17;64572.75;5004952;28;20461;-76
2022/06/30 07:33:53;;;;;;;7.60;6.82;;;;;;;24.94;64.08;64583.72;5002048;28;20238;-76
2022/06/30 07:36:20;;;;;;;9.40;6.93;;;;;;;25.04;64.81;64594.19;5005712;28;20427;-76
2022/06/30 07:38:49;;;;;;;8.90;6.75;;;;;;;25.04;64.18;64594.19;5004564;28;20557;-76
2022/06/30 07:41:16;;;;;;;8.40;7.03;;;;;;;25.11;61.33;64601.53;5004742;28;20207;-76
2022/06/30 07:43:43;;;;;;;11.10;8.00;;;;;;;25.15;63.52;64605.19;5005645;28;20234;-74
2022/06/30 07:46:10;;;;;;;10.02;7.75;;;;;;;25.09;63.40;64602.03;5001593;28;20196;-75
2022/06/30 07:48:37;;;;;;;7.65;6.82;;;;;;;25.40;62.47;64633.50;5000368;28;20218;-74
2022/06/30 07:51:04;;;;;;;8.15;7.43;;;;;;;25.34;62.79;64627.69;5010990;28;20238;-75
2022/06/30 07:53:31;;;;;;;10.70;7.32;;;;;;;25.41;63.41;64635.06;5007827;28;20226;-75
2022/06/30 07:56:00;;;;;;;8.18;7.35;;;;;;;25.38;60.71;64626.19;4994414;28;20203;-76
2022/06/30 07:58:27;;;;;;;7.15;6.43;;;;;;;25.40;59.84;64631.41;5001466;28;20261;-75
2022/06/30 08:00:54;;;;;;;9.82;6.93;;;;;;;25.66;60.92;64658.13;5005710;28;20198;-74
2022/06/30 08:03:21;;;;;;;14.32;7.65;;;;;;;25.62;60.29;64653.94;5006013;28;20235;-76
2022/06/30 08:05:47;;;;;;;7.82;7.03;;;;;;;25.60;60.63;64652.34;4998120;28;20204;-74
2022/06/30 08:08:15;;;;;;;12.63;7.53;;;;;;;25.54;64.67;64650.78;5005706;28;20222;-76
2022/06/30 08:10:42;;;;;;;8.82;6.90;;;;;;;25.67;60.05;64659.16;5005892;28;20201;-75
2022/06/30 08:13:10;;;;;;;8.77;7.05;;;;;;;25.68;60.31;64665.44;5004616;28;20237;-75
2022/06/30 08:15:38;;;;;;;9.00;6.47;;;;;;;25.42;60.10;64638.72;4987715;28;20199;-75
2022/06/30 08:18:06;;;;;;;9.52;6.90;;;;;;;25.63;62.48;64660.72;4985482;28;20309;-75
2022/06/30 08:20:33;;;;;;;6.97;6.10;;;;;;;25.88;61.93;64681.72;5002006;28;20503;-75
2022/06/30 08:23:00;;;;;;;11.73;6.72;;;;;;;26.21;61.76;64718.91;5003563;28;20230;-75
2022/06/30 08:25:28;;;;;;;9.38;7.05;;;;;;;26.31;58.63;64725.75;5004228;28;20495;-75
2022/06/30 08:27:55;;;;;;;9.38;6.13;;;;;;;26.24;60.05;64721.56;5004143;28;20225;-76
2022/06/30 08:30:24;;;;;;;7.47;6.68;;;;;;;26.36;57.89;64734.13;5004238;28;20194;-76
2022/06/30 08:32:51;;;;;;;10.63;6.53;;;;;;;26.48;56.38;64746.19;5004609;28;20542;-76
2022/06/30 08:35:18;;;;;;;11.15;6.13;;;;;;;26.39;56.63;64742.50;5003443;28;20203;-77
2022/06/30 08:37:44;;;;;;;6.95;6.35;;;;;;;26.51;55.57;64749.84;5004108;28;20230;-75
2022/06/30 08:42:57;;;;;;;7.43;6.22;;;;;;;26.23;54.72;64717.38;5004665;28;20269;-76
2022/06/30 08:45:26;;;;;;;7.80;5.95;;;;;;;26.30;55.83;64733.06;5005113;28;20190;-76
2022/06/30 08:47:53;;;;;;;9.30;7.13;;;;;;;26.41;57.87;64741.97;5006074;28;20381;-75
2022/06/30 08:50:20;;;;;;;7.32;6.47;;;;;;;26.71;53.48;64770.84;5005929;28;20233;-75
2022/06/30 08:52:51;;;;;;;7.40;4.80;;;;;;;26.83;52.82;64783.44;5005394;28;20241;-75
2022/06/30 08:55:19;;;;;;;7.20;5.75;;;;;;;26.99;52.32;64797.59;5003393;28;20507;-76
2022/06/30 08:57:56;;;;;;;8.57;5.10;;;;;;;27.05;51.47;64803.91;4993057;28;20570;-77
2022/06/30 09:00:23;;;;;;;10.20;4.85;;;;;;;27.21;52.43;64828.00;5004570;28;20301;-75
2022/06/30 09:02:51;;;;;;;9.10;5.40;;;;;;;27.41;51.23;64849.00;5005005;28;20231;-76
2022/06/30 09:05:18;;;;;;;5.97;5.22;;;;;;;27.48;49.90;64847.97;5005340;28;20218;-74
2022/06/30 09:07:45;;;;;;;5.03;4.65;;;;;;;27.64;48.78;64864.78;5004459;28;20257;-75
2022/06/30 09:10:12;;;;;;;6.13;4.97;;;;;;;27.59;49.26;64862.16;5002890;28;20199;-75
2022/06/30 09:12:41;;;;;;;6.13;4.50;;;;;;;27.57;49.11;64857.94;5001930;28;20222;-74
2022/06/30 09:15:08;;;;;;;5.05;4.55;;;;;;;27.54;48.83;64857.44;5003793;28;20187;-75
2022/06/30 09:17:35;;;;;;;5.07;4.60;;;;;;;27.51;48.85;64853.75;5003167;28;20707;-74
2022/06/30 09:20:07;;;;;;;5.00;4.43;;;;;;;27.66;46.80;64870.03;4998641;28;20203;-76
2022/06/30 09:22:36;;;;;;;5.75;4.50;;;;;;;27.65;47.57;64866.34;5004215;28;20215;-74
2022/06/30 09:25:06;;;;;;;4.80;4.22;;;;;;;27.68;47.98;64874.72;5004045;28;20198;-74
2022/06/30 09:27:35;;;;;;;8.13;5.32;;;;;;;27.65;49.60;64871.56;4999771;28;20218;-75
2022/06/30 09:30:04;;;;;;;8.75;4.22;;;;;;;27.83;49.47;64887.34;5006581;28;20219;-75
2022/06/30 09:33:22;;;;;;;6.55;4.75;;;;;;;27.74;52.22;64880.50;5006782;28;20285;-73
2022/06/30 09:35:51;;;;;;;5.63;4.88;;;;;;;27.92;51.41;64894.69;5005378;28;20195;-75
2022/06/30 09:38:18;;;;;;;5.72;4.43;;;;;;;28.21;50.35;64925.16;5007164;28;20218;-75
2022/06/30 09:43:45;;;;;;;5.07;4.55;;;;;;;28.06;48.78;64914.63;5121838;27;20827;-75
2022/06/30 09:46:13;;;;;;;4.97;4.50;;;;;;;28.30;52.21;64939.84;5101343;28;20203;-75
2022/06/30 09:48:41;;;;;;;7.15;4.90;;;;;;;28.31;48.15;64937.75;5101849;28;20283;-77
2022/06/30 09:51:08;;;;;;;6.05;5.35;;;;;;;28.33;47.90;64943.00;5096081;28;20227;-76
2022/06/30 09:53:35;;;;;;;6.07;4.78;;;;;;;28.40;49.29;64947.72;5098046;28;20468;-76
2022/06/30 09:56:11;;;;;;;5.93;5.35;;;;;;;28.40;47.62;64944.56;5101624;28;20204;-76
2022/06/30 09:58:41;;;;;;;5.03;4.57;;;;;;;28.47;46.29;64956.63;5098033;28;20253;-76
2022/06/30 10:01:10;;;;;;;10.57;4.47;;;;;;;28.51;45.34;64956.13;5098666;28;20210;-75
2022/06/30 10:03:45;;;;;;;6.55;4.53;;;;;;;28.67;45.88;64975.56;5098760;28;20223;-75
2022/06/30 10:06:14;;;;;;;6.00;4.00;;;;;;;28.87;48.67;64996.06;5094907;28;20194;-76
2022/06/30 10:08:41;;;;;;;4.72;4.43;;;;;;;28.99;47.07;65006.03;5099275;28;20239;-76
2022/06/30 10:11:09;;;;;;;5.32;4.82;;;;;;;28.84;46.21;64996.03;5098980;28;20198;-75
2022/06/30 10:13:38;;;;;;;6.10;5.22;;;;;;;28.69;46.88;64977.66;5095176;28;20410;-76
2022/06/30 10:16:07;;;;;;;5.15;4.10;;;;;;;28.84;48.71;64987.63;5100627;28;20191;-75
2022/06/30 10:18:38;;;;;;;7.63;4.53;;;;;;;29.00;49.10;65007.59;5100153;28;20219;-75
2022/06/30 10:21:05;;;;;;;3.75;3.55;;;;;;;29.18;45.27;65033.88;5098127;28;20191;-75
2022/06/30 10:23:33;;;;;;;3.35;3.17;;;;;;;29.34;43.48;65045.97;5097466;28;20231;-75
2022/06/30 10:26:00;;;;;;;3.63;2.97;;;;;;;29.45;41.59;65057.53;5096469;28;20199;-74
2022/06/30 10:28:28;;;;;;;3.83;3.63;;;;;;;29.58;39.78;65073.28;5079524;28;20254;-75
2022/06/30 10:31:02;;;;;;;4.40;3.80;;;;;;;29.51;41.56;65063.31;5079439;28;20242;-75
2022/06/30 10:33:38;;;;;;;4.35;3.95;;;;;;;29.62;43.33;65076.97;5093543;28;20220;-76
2022/06/30 10:36:12;;;;;;;3.17;3.03;;;;;;;29.76;39.28;65089.59;5098279;28;20207;-74
2022/06/30 10:38:47;;;;;;;3.60;3.40;;;;;;;29.71;39.87;65081.72;5098801;28;20210;-74
2022/06/30 10:41:17;;;;;;;5.88;3.88;;;;;;;29.75;42.52;65093.28;5096023;28;20221;-75
2022/06/30 10:44:22;;;;;;;4.53;3.72;;;;;;;29.60;41.71;65072.75;5094561;28;20282;-76
2022/06/30 10:47:09;;;;;;;4.18;3.88;;;;;;;29.53;44.53;65065.41;5023137;28;20228;-75
2022/06/30 10:49:53;;;;;;;3.60;3.13;;;;;;;29.43;40.36;65055.44;5028017;28;20228;-76
2022/06/30 10:52:22;;;;;;;4.00;3.28;;;;;;;29.42;40.15;65051.75;5074009;28;20314;-76
2022/06/30 10:54:49;;;;;;;5.20;3.50;;;;;;;29.58;43.69;65070.16;5082816;28;20196;-75
2022/06/30 10:57:17;;;;;;;3.95;3.58;;;;;;;29.72;45.47;65090.66;5083387;28;20253;-74
2022/06/30 10:59:44;;;;;;;5.45;3.42;;;;;;;29.91;41.68;65102.22;5084781;28;20196;-75
2022/06/30 11:02:25;;;;;;;3.92;3.72;;;;;;;30.09;41.61;65124.31;5085154;28;20227;-75
2022/06/30 11:05:24;;;;;;;3.60;3.40;;;;;;;30.26;40.52;65142.19;5082300;28;20249;-75
2022/06/30 11:07:50;;;;;;;11.25;4.53;;;;;;;30.34;43.91;65152.69;5082802;28;20238;-76
2022/06/30 11:10:19;;;;;;;5.30;3.80;;;;;;;30.31;43.82;65144.28;5085703;28;20215;-76
2022/06/30 11:13:01;;;;;;;4.10;3.90;;;;;;;30.43;47.50;65160.06;5087779;28;20383;-75
2022/06/30 11:15:55;;;;;;;6.63;3.95;;;;;;;30.34;42.99;65147.97;5078053;28;20270;-76
2022/06/30 11:18:23;;;;;;;4.38;3.70;;;;;;;30.18;44.15;65130.59;5090404;28;20216;-76
2022/06/30 11:20:52;;;;;;;4.40;4.00;;;;;;;30.06;44.19;65120.63;5079498;28;20204;-75
2022/06/30 11:23:22;;;;;;;6.00;4.05;;;;;;;30.21;48.26;65133.75;5073320;28;20262;-75
2022/06/30 11:28:39;;;;;;;4.40;4.03;;;;;;;29.81;44.14;65089.59;5066341;28;20559;-75
2022/06/30 11:31:05;;;;;;;4.50;4.00;;;;;;;30.04;45.56;65119.03;5078880;28;20248;-76
2022/06/30 11:33:33;;;;;;;4.60;4.20;;;;;;;30.21;47.98;65136.38;5079598;28;20222;-76
2022/06/30 11:36:09;;;;;;;5.53;4.40;;;;;;;30.15;47.16;65130.09;5083432;28;20239;-76
2022/06/30 11:38:37;;;;;;;4.28;3.97;;;;;;;30.26;48.33;65144.28;5077962;28;20220;-76
2022/06/30 11:43:57;;;;;;;4.35;4.05;;;;;;;30.42;45.23;65156.38;5072945;28;20289;-79
2022/06/30 11:46:24;;;;;;;3.80;3.50;;;;;;;30.65;44.03;65179.53;5068483;28;20504;-76
2022/06/30 11:48:51;;;;;;;4.78;3.80;;;;;;;30.70;42.93;65190.03;5078388;28;20384;-77
2022/06/30 11:51:19;;;;;;;5.45;4.13;;;;;;;31.12;41.78;65229.50;5086792;28;20195;-75
2022/06/30 11:53:46;;;;;;;5.43;3.78;;;;;;;31.37;42.66;65260.56;5083652;28;20219;-76
2022/06/30 11:56:13;;;;;;;4.85;3.55;;;;;;;31.66;43.24;65291.63;5078491;28;20231;-76
2022/06/30 11:58:40;;;;;;;6.85;3.20;;;;;;;31.81;43.69;65306.34;5103982;28;20215;-75